sensor_id;sensor_type;location;lat;lon;timestamp;P1;durP1;ratioP1;P2;durP2;ratioP2
68870;SDS011;55906;52.278;6.808;2023-02-02T00:02:06;8.32;;;3.33;;
68870;SDS011;55906;52.278;6.808;2023-02-02T00:04:33;10.15;;;3.22;;
68870;SDS011;55906;52.278;6.808;2023-02-02T00:07:02;10.35;;;3.72;;
68870;SDS011;55906;52.278;6.808;2023-02-02T00:09:31;13.07;;;3.67;;
68870;SDS011;55906;52.278;6.808;2023-02-02T00:11:59;9.10;;;3.28;;
68870;SDS011;55906;52.278;6.808;2023-02-02T00:14:26;11.23;;;3.63;;
68870;SDS011;55906;52.278;6.808;2023-02-02T00:16:53;9.57;;;3.53;;
68870;SDS011;55906;52.278;6.808;2023-02-02T00:19:21;7.70;;;3.45;;
68870;SDS011;55906;52.278;6.808;2023-02-02T00:21:50;10.38;;;3.95;;
68870;SDS011;55906;52.278;6.808;2023-02-02T00:24:18;15.02;;;4.10;;
68870;SDS011;55906;52.278;6.808;2023-02-02T00:26:46;7.72;;;3.80;;
68870;SDS011;55906;52.278;6.808;2023-02-02T00:29:15;13.88;;;3.75;;
68870;SDS011;55906;52.278;6.808;2023-02-02T00:31:43;8.10;;;3.80;;
68870;SDS011;55906;52.278;6.808;2023-02-02T00:34:10;13.05;;;3.90;;
68870;SDS011;55906;52.278;6.808;2023-02-02T00:36:37;12.13;;;4.47;;
68870;SDS011;55906;52.278;6.808;2023-02-02T00:39:04;12.63;;;4.85;;
68870;SDS011;55906;52.278;6.808;2023-02-02T00:41:33;14.95;;;4.28;;
68870;SDS011;55906;52.278;6.808;2023-02-02T00:43:59;12.23;;;4.13;;
68870;SDS011;55906;52.278;6.808;2023-02-02T00:46:43;15.30;;;4.25;;
68870;SDS011;55906;52.278;6.808;2023-02-02T00:49:10;9.97;;;4.10;;
68870;SDS011;55906;52.278;6.808;2023-02-02T00:51:37;8.98;;;3.30;;
68870;SDS011;55906;52.278;6.808;2023-02-02T00:54:04;12.43;;;4.38;;
68870;SDS011;55906;52.278;6.808;2023-02-02T00:56:31;13.15;;;4.30;;
68870;SDS011;55906;52.278;6.808;2023-02-02T00:58:59;12.53;;;4.43;;
68870;SDS011;55906;52.278;6.808;2023-02-02T01:01:25;11.15;;;3.95;;
68870;SDS011;55906;52.278;6.808;2023-02-02T01:03:52;11.50;;;3.30;;
68870;SDS011;55906;52.278;6.808;2023-02-02T01:06:19;9.70;;;3.67;;
68870;SDS011;55906;52.278;6.808;2023-02-02T01:08:46;9.23;;;4.13;;
68870;SDS011;55906;52.278;6.808;2023-02-02T01:11:12;10.63;;;4.68;;
68870;SDS011;55906;52.278;6.808;2023-02-02T01:13:40;15.77;;;4.22;;
68870;SDS011;55906;52.278;6.808;2023-02-02T01:16:07;18.10;;;4.27;;
68870;SDS011;55906;52.278;6.808;2023-02-02T01:18:35;14.02;;;4.25;;
68870;SDS011;55906;52.278;6.808;2023-02-02T01:21:03;13.85;;;4.97;;
68870;SDS011;55906;52.278;6.808;2023-02-02T01:23:31;15.90;;;5.00;;
68870;SDS011;55906;52.278;6.808;2023-02-02T01:25:58;13.18;;;4.20;;
68870;SDS011;55906;52.278;6.808;2023-02-02T01:28:27;13.23;;;4.10;;
68870;SDS011;55906;52.278;6.808;2023-02-02T01:30:56;13.57;;;4.93;;
68870;SDS011;55906;52.278;6.808;2023-02-02T01:33:23;13.70;;;4.47;;
68870;SDS011;55906;52.278;6.808;2023-02-02T01:35:51;14.32;;;5.05;;
68870;SDS011;55906;52.278;6.808;2023-02-02T01:38:19;14.35;;;4.70;;
68870;SDS011;55906;52.278;6.808;2023-02-02T01:40:46;20.25;;;5.22;;
68870;SDS011;55906;52.278;6.808;2023-02-02T01:43:19;17.13;;;5.53;;
68870;SDS011;55906;52.278;6.808;2023-02-02T01:45:48;15.38;;;5.70;;
68870;SDS011;55906;52.278;6.808;2023-02-02T01:48:17;17.52;;;5.57;;
68870;SDS011;55906;52.278;6.808;2023-02-02T01:50:45;14.17;;;6.27;;
68870;SDS011;55906;52.278;6.808;2023-02-02T01:53:15;12.63;;;5.25;;
68870;SDS011;55906;52.278;6.808;2023-02-02T01:55:45;13.98;;;5.05;;
68870;SDS011;55906;52.278;6.808;2023-02-02T01:58:14;18.70;;;5.57;;
68870;SDS011;55906;52.278;6.808;2023-02-02T02:00:44;14.18;;;4.72;;
68870;SDS011;55906;52.278;6.808;2023-02-02T02:03:11;22.73;;;5.55;;
68870;SDS011;55906;52.278;6.808;2023-02-02T02:05:43;16.67;;;4.77;;
68870;SDS011;55906;52.278;6.808;2023-02-02T02:08:12;18.88;;;4.57;;
68870;SDS011;55906;52.278;6.808;2023-02-02T02:10:43;17.83;;;5.78;;
68870;SDS011;55906;52.278;6.808;2023-02-02T02:13:09;16.45;;;5.57;;
68870;SDS011;55906;52.278;6.808;2023-02-02T02:15:39;17.42;;;4.90;;
68870;SDS011;55906;52.278;6.808;2023-02-02T02:18:29;19.75;;;5.05;;
68870;SDS011;55906;52.278;6.808;2023-02-02T02:21:26;14.38;;;5.03;;
68870;SDS011;55906;52.278;6.808;2023-02-02T02:28:14;14.27;;;4.38;;
68870;SDS011;55906;52.278;6.808;2023-02-02T02:31:15;13.90;;;4.00;;
68870;SDS011;55906;52.278;6.808;2023-02-02T02:33:58;16.90;;;4.53;;
68870;SDS011;55906;52.278;6.808;2023-02-02T02:36:30;11.07;;;4.20;;
68870;SDS011;55906;52.278;6.808;2023-02-02T02:39:05;13.35;;;4.10;;
68870;SDS011;55906;52.278;6.808;2023-02-02T02:41:38;13.27;;;4.68;;
68870;SDS011;55906;52.278;6.808;2023-02-02T02:44:10;18.15;;;5.07;;
68870;SDS011;55906;52.278;6.808;2023-02-02T02:46:41;19.42;;;5.05;;
68870;SDS011;55906;52.278;6.808;2023-02-02T02:49:10;11.70;;;4.05;;
68870;SDS011;55906;52.278;6.808;2023-02-02T02:51:39;11.57;;;4.38;;
68870;SDS011;55906;52.278;6.808;2023-02-02T02:54:08;14.87;;;4.80;;
68870;SDS011;55906;52.278;6.808;2023-02-02T02:56:39;17.75;;;4.95;;
68870;SDS011;55906;52.278;6.808;2023-02-02T02:59:18;12.48;;;4.53;;
68870;SDS011;55906;52.278;6.808;2023-02-02T03:01:54;13.30;;;4.75;;
68870;SDS011;55906;52.278;6.808;2023-02-02T03:04:32;12.63;;;4.23;;
68870;SDS011;55906;52.278;6.808;2023-02-02T03:07:06;13.27;;;4.05;;
68870;SDS011;55906;52.278;6.808;2023-02-02T03:09:40;12.85;;;4.72;;
68870;SDS011;55906;52.278;6.808;2023-02-02T03:12:09;14.82;;;4.25;;
68870;SDS011;55906;52.278;6.808;2023-02-02T03:14:36;17.07;;;4.30;;
68870;SDS011;55906;52.278;6.808;2023-02-02T03:17:03;12.25;;;4.20;;
68870;SDS011;55906;52.278;6.808;2023-02-02T03:19:31;13.43;;;4.30;;
68870;SDS011;55906;52.278;6.808;2023-02-02T03:21:58;18.00;;;4.72;;
68870;SDS011;55906;52.278;6.808;2023-02-02T03:24:24;15.63;;;4.40;;
68870;SDS011;55906;52.278;6.808;2023-02-02T03:26:51;15.80;;;6.00;;
68870;SDS011;55906;52.278;6.808;2023-02-02T03:29:18;12.27;;;3.80;;
68870;SDS011;55906;52.278;6.808;2023-02-02T03:31:45;11.70;;;4.00;;
68870;SDS011;55906;52.278;6.808;2023-02-02T03:34:12;13.82;;;4.57;;
68870;SDS011;55906;52.278;6.808;2023-02-02T03:36:40;11.85;;;4.55;;
68870;SDS011;55906;52.278;6.808;2023-02-02T03:39:07;20.17;;;4.90;;
68870;SDS011;55906;52.278;6.808;2023-02-02T03:41:33;15.67;;;4.87;;
68870;SDS011;55906;52.278;6.808;2023-02-02T03:44:00;17.90;;;4.57;;
68870;SDS011;55906;52.278;6.808;2023-02-02T03:46:26;21.90;;;4.30;;
68870;SDS011;55906;52.278;6.808;2023-02-02T03:48:53;13.57;;;4.05;;
68870;SDS011;55906;52.278;6.808;2023-02-02T03:51:20;15.20;;;4.27;;
68870;SDS011;55906;52.278;6.808;2023-02-02T03:53:48;11.85;;;4.00;;
68870;SDS011;55906;52.278;6.808;2023-02-02T03:56:15;16.50;;;4.35;;
68870;SDS011;55906;52.278;6.808;2023-02-02T03:58:43;10.68;;;3.90;;
68870;SDS011;55906;52.278;6.808;2023-02-02T04:01:11;12.20;;;4.40;;
68870;SDS011;55906;52.278;6.808;2023-02-02T04:03:39;12.98;;;4.18;;
68870;SDS011;55906;52.278;6.808;2023-02-02T04:06:05;16.80;;;4.22;;
68870;SDS011;55906;52.278;6.808;2023-02-02T04:08:32;12.95;;;4.57;;
68870;SDS011;55906;52.278;6.808;2023-02-02T04:11:00;13.13;;;4.30;;
68870;SDS011;55906;52.278;6.808;2023-02-02T04:13:27;15.80;;;4.50;;
68870;SDS011;55906;52.278;6.808;2023-02-02T04:15:57;18.05;;;4.88;;
68870;SDS011;55906;52.278;6.808;2023-02-02T04:18:24;12.38;;;4.82;;
68870;SDS011;55906;52.278;6.808;2023-02-02T04:20:54;11.90;;;4.30;;
68870;SDS011;55906;52.278;6.808;2023-02-02T04:23:22;13.13;;;4.00;;
68870;SDS011;55906;52.278;6.808;2023-02-02T04:25:49;12.95;;;3.80;;
68870;SDS011;55906;52.278;6.808;2023-02-02T04:28:18;11.85;;;4.45;;
68870;SDS011;55906;52.278;6.808;2023-02-02T04:30:46;15.15;;;4.63;;
68870;SDS011;55906;52.278;6.808;2023-02-02T04:33:13;12.23;;;4.43;;
68870;SDS011;55906;52.278;6.808;2023-02-02T04:35:40;11.23;;;4.35;;
68870;SDS011;55906;52.278;6.808;2023-02-02T04:38:07;10.37;;;4.07;;
68870;SDS011;55906;52.278;6.808;2023-02-02T04:40:36;13.15;;;4.40;;
68870;SDS011;55906;52.278;6.808;2023-02-02T04:43:03;9.35;;;4.45;;
68870;SDS011;55906;52.278;6.808;2023-02-02T04:45:31;12.85;;;4.13;;
68870;SDS011;55906;52.278;6.808;2023-02-02T04:47:58;9.93;;;4.20;;
68870;SDS011;55906;52.278;6.808;2023-02-02T04:50:25;6.68;;;3.70;;
68870;SDS011;55906;52.278;6.808;2023-02-02T04:52:51;7.97;;;3.97;;
68870;SDS011;55906;52.278;6.808;2023-02-02T04:55:18;9.30;;;4.13;;
68870;SDS011;55906;52.278;6.808;2023-02-02T04:57:45;9.23;;;4.53;;
68870;SDS011;55906;52.278;6.808;2023-02-02T05:00:12;7.97;;;4.13;;
68870;SDS011;55906;52.278;6.808;2023-02-02T05:02:40;7.63;;;3.83;;
68870;SDS011;55906;52.278;6.808;2023-02-02T05:05:09;5.87;;;3.53;;
68870;SDS011;55906;52.278;6.808;2023-02-02T05:07:38;7.43;;;3.85;;
68870;SDS011;55906;52.278;6.808;2023-02-02T05:10:05;10.38;;;3.88;;
68870;SDS011;55906;52.278;6.808;2023-02-02T05:12:33;5.05;;;3.63;;
68870;SDS011;55906;52.278;6.808;2023-02-02T05:14:59;9.50;;;3.88;;
68870;SDS011;55906;52.278;6.808;2023-02-02T05:17:27;5.57;;;3.63;;
68870;SDS011;55906;52.278;6.808;2023-02-02T05:19:55;6.78;;;4.40;;
68870;SDS011;55906;52.278;6.808;2023-02-02T05:22:22;6.17;;;3.43;;
68870;SDS011;55906;52.278;6.808;2023-02-02T05:24:49;5.15;;;3.25;;
68870;SDS011;55906;52.278;6.808;2023-02-02T05:27:16;6.85;;;3.80;;
68870;SDS011;55906;52.278;6.808;2023-02-02T05:29:42;6.47;;;3.83;;
68870;SDS011;55906;52.278;6.808;2023-02-02T05:32:09;6.43;;;3.43;;
68870;SDS011;55906;52.278;6.808;2023-02-02T05:34:35;4.80;;;3.40;;
68870;SDS011;55906;52.278;6.808;2023-02-02T05:37:03;6.55;;;3.58;;
68870;SDS011;55906;52.278;6.808;2023-02-02T05:39:30;8.27;;;5.20;;
68870;SDS011;55906;52.278;6.808;2023-02-02T05:41:57;7.88;;;4.95;;
68870;SDS011;55906;52.278;6.808;2023-02-02T05:44:23;9.02;;;4.32;;
68870;SDS011;55906;52.278;6.808;2023-02-02T05:46:50;5.80;;;4.80;;
68870;SDS011;55906;52.278;6.808;2023-02-02T05:49:17;8.23;;;5.73;;
68870;SDS011;55906;52.278;6.808;2023-02-02T05:51:43;7.93;;;4.82;;
68870;SDS011;55906;52.278;6.808;2023-02-02T05:54:13;7.43;;;5.38;;
68870;SDS011;55906;52.278;6.808;2023-02-02T05:56:44;9.80;;;5.75;;
68870;SDS011;55906;52.278;6.808;2023-02-02T05:59:11;9.67;;;6.13;;
68870;SDS011;55906;52.278;6.808;2023-02-02T06:01:38;13.43;;;6.10;;
68870;SDS011;55906;52.278;6.808;2023-02-02T06:04:04;12.63;;;6.35;;
68870;SDS011;55906;52.278;6.808;2023-02-02T06:06:31;11.38;;;5.93;;
68870;SDS011;55906;52.278;6.808;2023-02-02T06:08:59;12.60;;;6.70;;
68870;SDS011;55906;52.278;6.808;2023-02-02T06:11:27;14.43;;;6.63;;
68870;SDS011;55906;52.278;6.808;2023-02-02T06:13:54;13.13;;;6.43;;
68870;SDS011;55906;52.278;6.808;2023-02-02T06:16:21;12.85;;;6.35;;
68870;SDS011;55906;52.278;6.808;2023-02-02T06:18:48;14.70;;;5.80;;
68870;SDS011;55906;52.278;6.808;2023-02-02T06:21:15;10.25;;;6.18;;
68870;SDS011;55906;52.278;6.808;2023-02-02T06:23:43;17.27;;;6.30;;
68870;SDS011;55906;52.278;6.808;2023-02-02T06:26:10;14.55;;;6.30;;
68870;SDS011;55906;52.278;6.808;2023-02-02T06:28:38;11.10;;;6.00;;
68870;SDS011;55906;52.278;6.808;2023-02-02T06:31:06;14.82;;;6.13;;
68870;SDS011;55906;52.278;6.808;2023-02-02T06:33:35;17.30;;;6.20;;
68870;SDS011;55906;52.278;6.808;2023-02-02T06:36:02;10.57;;;5.68;;
68870;SDS011;55906;52.278;6.808;2023-02-02T06:38:30;11.40;;;5.53;;
68870;SDS011;55906;52.278;6.808;2023-02-02T06:40:58;12.48;;;5.40;;
68870;SDS011;55906;52.278;6.808;2023-02-02T06:43:24;13.88;;;5.78;;
68870;SDS011;55906;52.278;6.808;2023-02-02T06:45:52;15.55;;;5.85;;
68870;SDS011;55906;52.278;6.808;2023-02-02T06:48:19;16.23;;;5.83;;
68870;SDS011;55906;52.278;6.808;2023-02-02T06:50:46;11.77;;;5.40;;
68870;SDS011;55906;52.278;6.808;2023-02-02T06:53:13;10.68;;;5.22;;
68870;SDS011;55906;52.278;6.808;2023-02-02T06:55:40;12.88;;;5.60;;
68870;SDS011;55906;52.278;6.808;2023-02-02T06:58:06;13.93;;;6.03;;
68870;SDS011;55906;52.278;6.808;2023-02-02T07:00:33;10.10;;;5.85;;
68870;SDS011;55906;52.278;6.808;2023-02-02T07:03:03;9.40;;;5.38;;
68870;SDS011;55906;52.278;6.808;2023-02-02T07:05:30;11.18;;;5.50;;
68870;SDS011;55906;52.278;6.808;2023-02-02T07:07:56;7.77;;;4.60;;
68870;SDS011;55906;52.278;6.808;2023-02-02T07:10:23;7.13;;;3.97;;
68870;SDS011;55906;52.278;6.808;2023-02-02T07:12:50;7.15;;;3.85;;
68870;SDS011;55906;52.278;6.808;2023-02-02T07:15:19;5.90;;;3.42;;
68870;SDS011;55906;52.278;6.808;2023-02-02T07:17:46;6.32;;;3.75;;
68870;SDS011;55906;52.278;6.808;2023-02-02T07:20:14;4.37;;;3.40;;
68870;SDS011;55906;52.278;6.808;2023-02-02T07:22:41;5.30;;;3.58;;
68870;SDS011;55906;52.278;6.808;2023-02-02T07:25:08;7.32;;;4.05;;
68870;SDS011;55906;52.278;6.808;2023-02-02T07:27:35;4.80;;;2.97;;
68870;SDS011;55906;52.278;6.808;2023-02-02T07:30:01;6.95;;;3.25;;
68870;SDS011;55906;52.278;6.808;2023-02-02T07:32:29;7.10;;;3.88;;
68870;SDS011;55906;52.278;6.808;2023-02-02T07:34:55;4.43;;;3.30;;
68870;SDS011;55906;52.278;6.808;2023-02-02T07:37:23;4.00;;;2.90;;
68870;SDS011;55906;52.278;6.808;2023-02-02T07:39:50;4.50;;;3.60;;
68870;SDS011;55906;52.278;6.808;2023-02-02T07:42:17;4.53;;;3.50;;
68870;SDS011;55906;52.278;6.808;2023-02-02T07:44:43;6.45;;;3.20;;
68870;SDS011;55906;52.278;6.808;2023-02-02T07:47:10;4.47;;;3.05;;
68870;SDS011;55906;52.278;6.808;2023-02-02T07:49:37;4.22;;;2.90;;
68870;SDS011;55906;52.278;6.808;2023-02-02T07:52:04;4.72;;;3.70;;
68870;SDS011;55906;52.278;6.808;2023-02-02T07:54:32;4.35;;;3.17;;
68870;SDS011;55906;52.278;6.808;2023-02-02T07:56:59;4.95;;;3.95;;
68870;SDS011;55906;52.278;6.808;2023-02-02T07:59:26;4.00;;;3.28;;
68870;SDS011;55906;52.278;6.808;2023-02-02T08:01:52;5.13;;;3.10;;
68870;SDS011;55906;52.278;6.808;2023-02-02T08:04:19;4.03;;;3.10;;
68870;SDS011;55906;52.278;6.808;2023-02-02T08:06:46;4.40;;;2.90;;
68870;SDS011;55906;52.278;6.808;2023-02-02T08:09:12;5.85;;;3.28;;
68870;SDS011;55906;52.278;6.808;2023-02-02T08:11:40;3.65;;;2.70;;
68870;SDS011;55906;52.278;6.808;2023-02-02T08:14:07;3.85;;;2.88;;
68870;SDS011;55906;52.278;6.808;2023-02-02T08:16:37;3.53;;;2.60;;
68870;SDS011;55906;52.278;6.808;2023-02-02T08:19:03;4.10;;;3.10;;
68870;SDS011;55906;52.278;6.808;2023-02-02T08:21:31;3.83;;;3.05;;
68870;SDS011;55906;52.278;6.808;2023-02-02T08:23:58;4.10;;;2.73;;
68870;SDS011;55906;52.278;6.808;2023-02-02T08:26:25;4.07;;;3.00;;
68870;SDS011;55906;52.278;6.808;2023-02-02T08:28:55;3.65;;;2.95;;
68870;SDS011;55906;52.278;6.808;2023-02-02T08:31:24;5.75;;;3.58;;
68870;SDS011;55906;52.278;6.808;2023-02-02T08:33:53;4.73;;;3.03;;
68870;SDS011;55906;52.278;6.808;2023-02-02T08:36:22;4.00;;;3.13;;
68870;SDS011;55906;52.278;6.808;2023-02-02T08:38:49;4.20;;;3.15;;
68870;SDS011;55906;52.278;6.808;2023-02-02T08:41:18;6.05;;;3.65;;
68870;SDS011;55906;52.278;6.808;2023-02-02T08:43:47;4.05;;;2.80;;
68870;SDS011;55906;52.278;6.808;2023-02-02T08:46:16;4.97;;;3.00;;
68870;SDS011;55906;52.278;6.808;2023-02-02T08:48:44;5.75;;;3.65;;
68870;SDS011;55906;52.278;6.808;2023-02-02T08:51:11;5.57;;;3.35;;
68870;SDS011;55906;52.278;6.808;2023-02-02T08:53:42;4.57;;;3.40;;
68870;SDS011;55906;52.278;6.808;2023-02-02T08:56:11;4.73;;;2.80;;
68870;SDS011;55906;52.278;6.808;2023-02-02T08:58:39;4.97;;;3.55;;
68870;SDS011;55906;52.278;6.808;2023-02-02T09:01:11;4.43;;;3.13;;
68870;SDS011;55906;52.278;6.808;2023-02-02T09:03:41;4.65;;;2.90;;
68870;SDS011;55906;52.278;6.808;2023-02-02T09:06:08;5.53;;;3.10;;
68870;SDS011;55906;52.278;6.808;2023-02-02T09:08:36;5.22;;;3.25;;
68870;SDS011;55906;52.278;6.808;2023-02-02T09:11:04;5.65;;;3.20;;
68870;SDS011;55906;52.278;6.808;2023-02-02T09:13:32;5.40;;;3.92;;
68870;SDS011;55906;52.278;6.808;2023-02-02T09:15:59;6.20;;;3.80;;
68870;SDS011;55906;52.278;6.808;2023-02-02T09:18:26;6.50;;;4.13;;
68870;SDS011;55906;52.278;6.808;2023-02-02T09:20:57;6.05;;;3.45;;
68870;SDS011;55906;52.278;6.808;2023-02-02T09:23:25;5.30;;;4.00;;
68870;SDS011;55906;52.278;6.808;2023-02-02T09:25:52;5.22;;;3.50;;
68870;SDS011;55906;52.278;6.808;2023-02-02T09:28:18;4.57;;;3.30;;
68870;SDS011;55906;52.278;6.808;2023-02-02T09:30:45;5.70;;;3.45;;
68870;SDS011;55906;52.278;6.808;2023-02-02T09:33:12;5.45;;;3.95;;
68870;SDS011;55906;52.278;6.808;2023-02-02T09:35:38;5.55;;;3.70;;
68870;SDS011;55906;52.278;6.808;2023-02-02T09:38:06;4.57;;;3.20;;
68870;SDS011;55906;52.278;6.808;2023-02-02T09:40:33;5.07;;;3.90;;
68870;SDS011;55906;52.278;6.808;2023-02-02T09:43:01;5.93;;;5.00;;
68870;SDS011;55906;52.278;6.808;2023-02-02T09:45:35;7.22;;;5.13;;
68870;SDS011;55906;52.278;6.808;2023-02-02T09:48:12;5.83;;;4.03;;
68870;SDS011;55906;52.278;6.808;2023-02-02T09:50:51;6.55;;;4.55;;
68870;SDS011;55906;52.278;6.808;2023-02-02T09:53:24;6.63;;;4.47;;
68870;SDS011;55906;52.278;6.808;2023-02-02T09:55:55;13.85;;;8.20;;
68870;SDS011;55906;52.278;6.808;2023-02-02T09:58:25;12.40;;;7.03;;
68870;SDS011;55906;52.278;6.808;2023-02-02T10:00:58;10.27;;;5.80;;
68870;SDS011;55906;52.278;6.808;2023-02-02T10:03:29;8.02;;;5.32;;
68870;SDS011;55906;52.278;6.808;2023-02-02T10:06:02;8.30;;;4.70;;
68870;SDS011;55906;52.278;6.808;2023-02-02T10:08:40;8.27;;;5.22;;
68870;SDS011;55906;52.278;6.808;2023-02-02T10:14:01;11.55;;;5.38;;
68870;SDS011;55906;52.278;6.808;2023-02-02T10:16:32;11.40;;;5.30;;
68870;SDS011;55906;52.278;6.808;2023-02-02T10:19:02;12.57;;;5.97;;
68870;SDS011;55906;52.278;6.808;2023-02-02T10:21:32;17.85;;;6.57;;
68870;SDS011;55906;52.278;6.808;2023-02-02T10:24:07;16.57;;;5.57;;
68870;SDS011;55906;52.278;6.808;2023-02-02T10:26:42;16.30;;;6.05;;
68870;SDS011;55906;52.278;6.808;2023-02-02T10:29:14;15.13;;;6.43;;
68870;SDS011;55906;52.278;6.808;2023-02-02T10:31:43;13.75;;;6.05;;
68870;SDS011;55906;52.278;6.808;2023-02-02T10:34:21;12.10;;;5.83;;
68870;SDS011;55906;52.278;6.808;2023-02-02T10:36:57;15.57;;;6.75;;
68870;SDS011;55906;52.278;6.808;2023-02-02T10:39:38;15.02;;;5.97;;
68870;SDS011;55906;52.278;6.808;2023-02-02T10:42:20;14.32;;;6.15;;
68870;SDS011;55906;52.278;6.808;2023-02-02T10:44:52;16.65;;;6.25;;
68870;SDS011;55906;52.278;6.808;2023-02-02T10:47:23;16.67;;;6.10;;
68870;SDS011;55906;52.278;6.808;2023-02-02T10:49:54;17.10;;;5.80;;
68870;SDS011;55906;52.278;6.808;2023-02-02T10:52:30;16.80;;;7.15;;
68870;SDS011;55906;52.278;6.808;2023-02-02T10:55:01;11.57;;;5.70;;
68870;SDS011;55906;52.278;6.808;2023-02-02T10:57:37;13.67;;;6.13;;
68870;SDS011;55906;52.278;6.808;2023-02-02T11:00:15;16.88;;;6.50;;
68870;SDS011;55906;52.278;6.808;2023-02-02T11:02:46;15.43;;;5.72;;
68870;SDS011;55906;52.278;6.808;2023-02-02T11:05:18;15.90;;;6.15;;
68870;SDS011;55906;52.278;6.808;2023-02-02T11:08:11;13.95;;;5.80;;
68870;SDS011;55906;52.278;6.808;2023-02-02T11:10:41;16.37;;;5.90;;
68870;SDS011;55906;52.278;6.808;2023-02-02T11:13:10;19.63;;;6.10;;
68870;SDS011;55906;52.278;6.808;2023-02-02T11:15:46;14.18;;;7.18;;
68870;SDS011;55906;52.278;6.808;2023-02-02T11:18:13;14.27;;;6.30;;
68870;SDS011;55906;52.278;6.808;2023-02-02T11:20:52;17.03;;;6.07;;
68870;SDS011;55906;52.278;6.808;2023-02-02T11:23:19;13.15;;;4.97;;
68870;SDS011;55906;52.278;6.808;2023-02-02T11:25:57;10.68;;;5.60;;
68870;SDS011;55906;52.278;6.808;2023-02-02T11:28:25;16.15;;;6.47;;
68870;SDS011;55906;52.278;6.808;2023-02-02T11:30:55;12.05;;;5.45;;
68870;SDS011;55906;52.278;6.808;2023-02-02T11:33:25;13.17;;;5.80;;
68870;SDS011;55906;52.278;6.808;2023-02-02T11:35:55;11.27;;;5.43;;
68870;SDS011;55906;52.278;6.808;2023-02-02T11:38:23;13.80;;;5.40;;
68870;SDS011;55906;52.278;6.808;2023-02-02T11:40:54;10.63;;;5.03;;
68870;SDS011;55906;52.278;6.808;2023-02-02T11:43:27;14.43;;;5.50;;
68870;SDS011;55906;52.278;6.808;2023-02-02T11:45:56;11.60;;;5.73;;
68870;SDS011;55906;52.278;6.808;2023-02-02T11:48:28;11.68;;;5.53;;
68870;SDS011;55906;52.278;6.808;2023-02-02T11:50:58;13.23;;;5.13;;
68870;SDS011;55906;52.278;6.808;2023-02-02T11:53:26;11.57;;;5.70;;
68870;SDS011;55906;52.278;6.808;2023-02-02T11:55:56;12.00;;;5.05;;
68870;SDS011;55906;52.278;6.808;2023-02-02T11:58:26;10.77;;;5.00;;
68870;SDS011;55906;52.278;6.808;2023-02-02T12:00:55;11.02;;;5.40;;
68870;SDS011;55906;52.278;6.808;2023-02-02T12:03:25;12.00;;;5.45;;
68870;SDS011;55906;52.278;6.808;2023-02-02T12:05:57;11.77;;;5.95;;
68870;SDS011;55906;52.278;6.808;2023-02-02T12:08:26;9.95;;;4.82;;
68870;SDS011;55906;52.278;6.808;2023-02-02T12:10:57;11.40;;;5.40;;
68870;SDS011;55906;52.278;6.808;2023-02-02T12:13:34;14.98;;;5.25;;
68870;SDS011;55906;52.278;6.808;2023-02-02T12:16:19;9.68;;;4.97;;
68870;SDS011;55906;52.278;6.808;2023-02-02T12:19:01;13.95;;;5.40;;
68870;SDS011;55906;52.278;6.808;2023-02-02T12:21:41;11.50;;;5.40;;
68870;SDS011;55906;52.278;6.808;2023-02-02T12:24:20;13.40;;;5.40;;
68870;SDS011;55906;52.278;6.808;2023-02-02T12:26:57;11.30;;;5.55;;
68870;SDS011;55906;52.278;6.808;2023-02-02T12:29:36;11.05;;;5.43;;
68870;SDS011;55906;52.278;6.808;2023-02-02T12:32:23;13.68;;;5.40;;
68870;SDS011;55906;52.278;6.808;2023-02-02T12:34:59;12.32;;;5.60;;
68870;SDS011;55906;52.278;6.808;2023-02-02T12:37:47;13.37;;;5.07;;
68870;SDS011;55906;52.278;6.808;2023-02-02T12:40:28;15.52;;;5.43;;
68870;SDS011;55906;52.278;6.808;2023-02-02T12:43:12;10.63;;;5.82;;
68870;SDS011;55906;52.278;6.808;2023-02-02T12:45:50;15.27;;;6.30;;
68870;SDS011;55906;52.278;6.808;2023-02-02T12:48:32;9.32;;;5.85;;
68870;SDS011;55906;52.278;6.808;2023-02-02T12:51:12;12.70;;;5.90;;
68870;SDS011;55906;52.278;6.808;2023-02-02T12:56:42;15.48;;;5.32;;
68870;SDS011;55906;52.278;6.808;2023-02-02T12:59:17;12.32;;;5.38;;
68870;SDS011;55906;52.278;6.808;2023-02-02T13:01:59;12.52;;;5.82;;
68870;SDS011;55906;52.278;6.808;2023-02-02T13:04:44;10.97;;;5.60;;
68870;SDS011;55906;52.278;6.808;2023-02-02T13:07:31;9.73;;;5.93;;
68870;SDS011;55906;52.278;6.808;2023-02-02T13:10:17;11.48;;;6.35;;
68870;SDS011;55906;52.278;6.808;2023-02-02T13:12:50;18.60;;;6.47;;
68870;SDS011;55906;52.278;6.808;2023-02-02T13:15:21;15.80;;;7.23;;
68870;SDS011;55906;52.278;6.808;2023-02-02T13:17:59;14.60;;;7.10;;
68870;SDS011;55906;52.278;6.808;2023-02-02T13:20:35;11.93;;;6.60;;
68870;SDS011;55906;52.278;6.808;2023-02-02T13:23:04;14.02;;;6.22;;
68870;SDS011;55906;52.278;6.808;2023-02-02T13:25:36;14.10;;;7.03;;
68870;SDS011;55906;52.278;6.808;2023-02-02T13:28:09;15.33;;;6.90;;
68870;SDS011;55906;52.278;6.808;2023-02-02T13:30:46;13.30;;;6.50;;
68870;SDS011;55906;52.278;6.808;2023-02-02T13:33:16;16.00;;;6.85;;
68870;SDS011;55906;52.278;6.808;2023-02-02T13:35:51;17.60;;;7.30;;
68870;SDS011;55906;52.278;6.808;2023-02-02T13:38:21;14.32;;;8.02;;
68870;SDS011;55906;52.278;6.808;2023-02-02T13:40:49;20.03;;;8.60;;
68870;SDS011;55906;52.278;6.808;2023-02-02T13:43:30;22.35;;;8.80;;
68870;SDS011;55906;52.278;6.808;2023-02-02T13:46:07;15.05;;;8.35;;
68870;SDS011;55906;52.278;6.808;2023-02-02T13:48:48;18.20;;;8.88;;
68870;SDS011;55906;52.278;6.808;2023-02-02T13:51:30;19.17;;;9.25;;
68870;SDS011;55906;52.278;6.808;2023-02-02T13:57:07;16.25;;;8.38;;
68870;SDS011;55906;52.278;6.808;2023-02-02T13:59:50;17.35;;;9.10;;
68870;SDS011;55906;52.278;6.808;2023-02-02T14:02:25;18.40;;;9.02;;
68870;SDS011;55906;52.278;6.808;2023-02-02T14:04:59;17.00;;;8.68;;
68870;SDS011;55906;52.278;6.808;2023-02-02T14:07:34;24.25;;;11.27;;
68870;SDS011;55906;52.278;6.808;2023-02-02T14:10:04;22.30;;;9.88;;
68870;SDS011;55906;52.278;6.808;2023-02-02T14:12:32;21.50;;;9.68;;
68870;SDS011;55906;52.278;6.808;2023-02-02T14:15:00;20.80;;;9.82;;
68870;SDS011;55906;52.278;6.808;2023-02-02T14:26:16;18.95;;;9.27;;
68870;SDS011;55906;52.278;6.808;2023-02-02T14:29:01;12.82;;;7.93;;
68870;SDS011;55906;52.278;6.808;2023-02-02T14:31:29;13.67;;;7.60;;
68870;SDS011;55906;52.278;6.808;2023-02-02T14:34:23;13.95;;;8.02;;
68870;SDS011;55906;52.278;6.808;2023-02-02T14:36:55;14.05;;;7.82;;
68870;SDS011;55906;52.278;6.808;2023-02-02T14:39:35;14.38;;;7.93;;
68870;SDS011;55906;52.278;6.808;2023-02-02T14:42:16;14.23;;;8.23;;
68870;SDS011;55906;52.278;6.808;2023-02-02T14:47:53;14.80;;;7.43;;
68870;SDS011;55906;52.278;6.808;2023-02-02T14:50:25;14.20;;;8.55;;
68870;SDS011;55906;52.278;6.808;2023-02-02T14:53:12;13.68;;;7.85;;
68870;SDS011;55906;52.278;6.808;2023-02-02T14:55:49;14.60;;;7.38;;
68870;SDS011;55906;52.278;6.808;2023-02-02T14:58:27;14.23;;;8.18;;
68870;SDS011;55906;52.278;6.808;2023-02-02T15:01:01;13.40;;;7.43;;
68870;SDS011;55906;52.278;6.808;2023-02-02T15:03:33;12.65;;;7.70;;
68870;SDS011;55906;52.278;6.808;2023-02-02T15:06:29;13.68;;;7.95;;
68870;SDS011;55906;52.278;6.808;2023-02-02T15:12:17;15.65;;;7.38;;
68870;SDS011;55906;52.278;6.808;2023-02-02T15:15:15;16.05;;;7.88;;
68870;SDS011;55906;52.278;6.808;2023-02-02T15:17:48;15.52;;;7.40;;
68870;SDS011;55906;52.278;6.808;2023-02-02T15:20:27;17.33;;;7.27;;
68870;SDS011;55906;52.278;6.808;2023-02-02T15:22:59;16.40;;;7.07;;
68870;SDS011;55906;52.278;6.808;2023-02-02T15:25:31;16.83;;;7.70;;
68870;SDS011;55906;52.278;6.808;2023-02-02T15:28:04;15.40;;;7.40;;